Time;durP1;ratioP1;P1;durP2;ratioP2;P2;SDS_P1;SDS_P2;PMS_P1;PMS_P2;Temp;Humidity;BMP_temperature;BMP_pressure;BME280_temperature;BME280_humidity;BME280_pressure;Samples;Min_cycle;Max_cycle;Signal;HPM_P1;HPM_P2
2023/05/04 00:00:06;;;;;;;15.83;13.13;;;;;;;9.69;89.46;93607.31;515826;28;766;-56
2023/05/04 00:00:22;;;;;;;16.80;13.15;;;;;;;9.72;89.49;93609.72;515869;28;846;-55
2023/05/04 00:00:37;;;;;;;16.83;13.30;;;;;;;9.74;89.08;93603.69;515738;28;861;-54
2023/05/04 00:00:53;;;;;;;16.57;13.53;;;;;;;9.77;88.85;93603.31;515782;28;936;-56
2023/05/04 00:01:10;;;;;;;15.67;13.17;;;;;;;9.80;88.81;93607.78;515667;28;866;-56
2023/05/04 00:01:25;;;;;;;15.95;13.20;;;;;;;9.84;88.77;93607.41;515567;28;952;-56
2023/05/04 00:01:42;;;;;;;15.43;13.43;;;;;;;9.86;88.88;93610.38;515637;28;802;-53
2023/05/04 00:01:57;;;;;;;15.43;13.40;;;;;;;9.84;88.46;93610.19;515642;28;858;-55
2023/05/04 00:02:12;;;;;;;15.70;12.98;;;;;;;9.84;88.56;93610.19;515642;28;939;-56
2023/05/04 00:02:28;;;;;;;15.47;13.03;;;;;;;9.85;88.42;93612.38;515516;28;845;-56
2023/05/04 00:02:43;;;;;;;17.23;13.13;;;;;;;9.87;88.52;93614.63;515574;28;877;-55
2023/05/04 00:02:58;;;;;;;18.67;12.98;;;;;;;9.87;88.34;93609.81;515588;28;872;-55
2023/05/04 00:03:14;;;;;;;17.23;13.67;;;;;;;9.83;88.29;93608.72;515686;28;872;-56
2023/05/04 00:03:29;;;;;;;17.63;13.63;;;;;;;9.72;88.35;93606.94;515654;28;845;-55
2023/05/04 00:03:45;;;;;;;17.48;13.45;;;;;;;9.62;88.75;93616.25;515823;28;995;-55
2023/05/04 00:04:00;;;;;;;18.87;14.30;;;;;;;9.58;88.82;93611.06;515793;28;773;-54
2023/05/04 00:04:16;;;;;;;17.85;13.88;;;;;;;9.50;88.81;93601.25;515684;28;912;-57
2023/05/04 00:04:31;;;;;;;15.25;13.52;;;;;;;9.61;89.08;93612.75;515795;28;828;-55
2023/05/04 00:04:47;;;;;;;16.77;12.97;;;;;;;9.65;89.11;93617.94;515788;28;812;-56
2023/05/04 00:05:04;;;;;;;17.40;13.23;;;;;;;9.68;89.04;93614.81;515751;28;840;-56
2023/05/04 00:05:20;;;;;;;16.55;14.20;;;;;;;9.71;89.02;93618.53;515759;28;826;-54
2023/05/04 00:05:35;;;;;;;16.43;14.10;;;;;;;9.75;88.74;93607.91;515802;28;916;-56
2023/05/04 00:05:51;;;;;;;17.52;14.02;;;;;;;9.78;88.53;93613.09;515725;28;990;-54
2023/05/04 00:06:06;;;;;;;16.73;13.87;;;;;;;9.82;88.75;93612.75;515827;28;782;-53
2023/05/04 00:06:22;;;;;;;16.60;14.00;;;;;;;9.81;88.40;93617.50;515830;28;838;-56
2023/05/04 00:06:37;;;;;;;17.40;14.73;;;;;;;9.83;88.25;93614.22;515580;28;1969;-55
2023/05/04 00:06:52;;;;;;;17.03;15.03;;;;;;;9.76;88.52;93617.66;515816;28;856;-55
2023/05/04 00:07:08;;;;;;;17.98;14.98;;;;;;;9.68;88.56;93616.88;515759;28;877;-56
2023/05/04 00:07:23;;;;;;;19.37;15.50;;;;;;;9.57;89.05;93603.34;515685;28;843;-55
2023/05/04 00:07:38;;;;;;;21.00;15.95;;;;;;;9.64;89.44;93616.44;517548;28;1099;-55
2023/05/04 00:07:54;;;;;;;21.00;15.83;;;;;;;9.69;89.42;93618.31;517732;28;783;-56
2023/05/04 00:08:09;;;;;;;18.97;15.37;;;;;;;9.62;89.63;93617.00;517663;28;830;-54
2023/05/04 00:08:24;;;;;;;19.08;15.27;;;;;;;9.58;90.09;93613.84;517686;28;833;-56
2023/05/04 00:08:40;;;;;;;19.47;15.90;;;;;;;9.58;90.32;93615.84;517592;28;793;-53
2023/05/04 00:08:55;;;;;;;19.00;15.60;;;;;;;9.62;90.35;93613.47;517654;28;801;-55
2023/05/04 00:09:12;;;;;;;19.65;15.70;;;;;;;9.57;90.54;93615.09;517681;28;789;-56
2023/05/04 00:09:27;;;;;;;19.17;15.38;;;;;;;9.57;90.74;93612.34;517288;28;880;-55
2023/05/04 00:09:43;;;;;;;17.70;14.65;;;;;;;9.57;90.77;93617.13;515462;28;2580;-55
2023/05/04 00:09:58;;;;;;;17.07;15.17;;;;;;;9.57;90.50;93606.81;515547;28;909;-55
2023/05/04 00:10:14;;;;;;;19.65;16.23;;;;;;;9.61;90.58;93612.03;515678;28;1046;-56
2023/05/04 00:10:29;;;;;;;22.40;16.77;;;;;;;9.51;90.54;93599.97;515623;28;1065;-54
2023/05/04 00:10:45;;;;;;;23.02;16.33;;;;;;;9.65;90.67;93606.91;515653;28;877;-56
2023/05/04 00:11:00;;;;;;;19.70;15.13;;;;;;;9.67;90.38;93607.84;515569;28;1289;-53
2023/05/04 00:11:16;;;;;;;17.23;14.68;;;;;;;9.71;90.53;93616.50;515620;28;949;-56
2023/05/04 00:11:32;;;;;;;20.70;15.13;;;;;;;9.69;90.25;93607.31;515607;28;1289;-54
2023/05/04 00:11:47;;;;;;;19.55;14.20;;;;;;;9.57;89.75;93612.34;515561;28;912;-55
2023/05/04 00:12:03;;;;;;;14.18;12.65;;;;;;;9.54;89.51;93604.41;515675;28;868;-55
2023/05/04 00:12:18;;;;;;;14.20;12.70;;;;;;;9.54;89.48;93610.69;515614;28;1326;-55
2023/05/04 00:12:34;;;;;;;15.93;13.20;;;;;;;9.57;89.32;93609.59;515605;28;861;-55
2023/05/04 00:12:49;;;;;;;16.17;13.50;;;;;;;9.60;88.98;93607.78;515619;28;1061;-55
2023/05/04 00:13:05;;;;;;;17.03;14.03;;;;;;;9.64;89.16;93610.94;515692;28;778;-56
2023/05/04 00:13:21;;;;;;;18.25;14.55;;;;;;;9.68;89.14;93605.84;515546;28;1133;-54
2023/05/04 00:13:36;;;;;;;17.08;13.98;;;;;;;9.71;88.91;93613.00;515674;28;842;-55
2023/05/04 00:13:52;;;;;;;16.90;13.37;;;;;;;9.71;88.75;93602.72;515732;28;1766;-55
2023/05/04 00:14:07;;;;;;;16.25;13.00;;;;;;;9.67;88.69;93609.84;515780;28;799;-55
2023/05/04 00:14:22;;;;;;;16.63;12.63;;;;;;;9.60;88.24;93610.53;515685;28;967;-55
2023/05/04 00:14:38;;;;;;;16.98;12.25;;;;;;;9.57;88.40;93611.63;515701;28;1688;-56
2023/05/04 00:14:53;;;;;;;16.03;12.40;;;;;;;9.59;88.25;93611.81;515781;28;782;-56
2023/05/04 00:15:09;;;;;;;15.27;12.90;;;;;;;9.57;88.20;93609.59;515755;28;841;-55
2023/05/04 00:15:24;;;;;;;18.02;12.82;;;;;;;9.58;88.19;93608.31;515770;28;864;-55
2023/05/04 00:15:40;;;;;;;19.73;12.85;;;;;;;9.60;88.18;93610.53;515605;28;1285;-52
2023/05/04 00:15:55;;;;;;;16.97;13.30;;;;;;;9.60;88.11;93605.75;515723;28;869;-55
2023/05/04 00:16:11;;;;;;;16.47;13.57;;;;;;;9.60;88.33;93607.78;515820;28;853;-55
2023/05/04 00:16:26;;;;;;;17.73;13.57;;;;;;;9.58;88.29;93610.34;515725;28;829;-56
2023/05/04 00:16:42;;;;;;;17.07;13.23;;;;;;;9.60;88.18;93611.28;517677;28;1305;-55
2023/05/04 00:16:58;;;;;;;16.88;13.48;;;;;;;9.62;88.06;93614.22;517767;28;864;-55
2023/05/04 00:17:13;;;;;;;16.57;13.90;;;;;;;9.66;88.24;93613.88;517868;28;786;-55
2023/05/04 00:17:28;;;;;;;18.90;14.07;;;;;;;9.68;88.30;93611.34;517727;28;926;-56
2023/05/04 00:17:44;;;;;;;19.13;14.10;;;;;;;9.72;88.25;93611.75;517871;28;848;-56
2023/05/04 00:17:59;;;;;;;17.50;14.50;;;;;;;9.72;87.96;93600.72;517722;28;861;-55
2023/05/04 00:18:15;;;;;;;19.17;15.10;;;;;;;9.77;87.88;93608.09;517884;28;834;-55
2023/05/04 00:18:30;;;;;;;18.05;14.82;;;;;;;9.77;88.03;93616.38;517706;28;848;-56
2023/05/04 00:18:46;;;;;;;17.10;14.57;;;;;;;9.74;87.86;93609.94;517780;28;922;-55
2023/05/04 00:19:01;;;;;;;19.13;13.90;;;;;;;9.72;87.81;93606.22;517728;28;972;-55
2023/05/04 00:19:18;;;;;;;18.33;13.77;;;;;;;9.71;87.97;93611.00;517799;28;865;-55
2023/05/04 00:19:34;;;;;;;15.95;13.70;;;;;;;9.72;88.05;93609.72;517774;28;837;-55
2023/05/04 00:19:49;;;;;;;16.30;13.93;;;;;;;9.72;87.96;93606.22;517827;28;872;-56
2023/05/04 00:20:05;;;;;;;15.70;14.00;;;;;;;9.74;87.96;93606.44;517745;28;935;-54
2023/05/04 00:20:21;;;;;;;17.98;13.88;;;;;;;9.77;87.90;93614.34;517668;28;1279;-55
2023/05/04 00:20:36;;;;;;;18.40;13.47;;;;;;;9.81;87.87;93608.50;517735;28;836;-54
2023/05/04 00:20:52;;;;;;;19.42;13.38;;;;;;;9.56;87.62;93571.53;517829;28;805;-56
2023/05/04 00:21:07;;;;;;;18.90;13.17;;;;;;;9.87;87.41;93614.63;517800;28;837;-57
2023/05/04 00:21:23;;;;;;;15.53;13.10;;;;;;;9.88;87.12;93605.81;517766;28;844;-56
2023/05/04 00:21:38;;;;;;;15.65;12.90;;;;;;;9.88;87.15;93610.56;517759;28;840;-56
2023/05/04 00:21:53;;;;;;;18.37;13.37;;;;;;;9.88;86.79;93614.06;517777;28;864;-56
2023/05/04 00:22:09;;;;;;;17.63;13.90;;;;;;;9.87;86.80;93607.06;517757;28;855;-57
2023/05/04 00:22:24;;;;;;;16.23;14.05;;;;;;;9.80;86.71;93607.03;517755;28;892;-55
2023/05/04 00:22:40;;;;;;;17.03;13.23;;;;;;;9.66;86.72;93611.13;517728;28;834;-55
2023/05/04 00:22:55;;;;;;;18.00;12.35;;;;;;;9.58;86.88;93610.34;517747;28;769;-56
2023/05/04 00:23:11;;;;;;;19.17;13.00;;;;;;;9.58;87.11;93607.56;517800;28;892;-57
2023/05/04 00:23:26;;;;;;;17.55;13.13;;;;;;;9.60;86.93;93607.78;517806;28;805;-53
2023/05/04 00:23:41;;;;;;;16.37;12.60;;;;;;;9.63;87.07;93610.22;517698;28;861;-56
2023/05/04 00:23:57;;;;;;;15.47;12.63;;;;;;;9.67;87.20;93615.38;517801;28;821;-56
2023/05/04 00:24:12;;;;;;;16.35;12.70;;;;;;;9.67;86.80;93610.59;517770;28;822;-56
2023/05/04 00:24:28;;;;;;;17.53;12.70;;;;;;;9.59;86.96;93609.06;517754;28;780;-56
2023/05/04 00:24:43;;;;;;;17.00;12.35;;;;;;;9.52;86.96;93612.50;517793;28;847;-54
2023/05/04 00:24:59;;;;;;;14.60;11.67;;;;;;;9.53;86.99;93616.75;517667;28;1022;-55
2023/05/04 00:25:14;;;;;;;12.93;11.57;;;;;;;9.46;87.17;93609.88;517853;28;1160;-55
2023/05/04 00:25:29;;;;;;;13.52;12.05;;;;;;;9.28;87.25;93596.28;517761;28;790;-55
2023/05/04 00:25:45;;;;;;;14.00;12.10;;;;;;;9.35;87.61;93612.91;517747;28;809;-55
2023/05/04 00:26:00;;;;;;;14.98;12.25;;;;;;;9.33;87.50;93614.69;517753;28;798;-55
2023/05/04 00:26:16;;;;;;;15.20;12.07;;;;;;;9.35;87.88;93612.16;517770;28;991;-56
2023/05/04 00:26:31;;;;;;;13.95;11.80;;;;;;;9.38;88.04;93608.31;517663;28;853;-56
2023/05/04 00:26:46;;;;;;;14.60;11.97;;;;;;;9.44;87.83;93611.69;517623;28;1915;-56
2023/05/04 00:27:02;;;;;;;14.53;11.50;;;;;;;9.47;87.70;93613.34;517865;28;813;-55
2023/05/04 00:27:18;;;;;;;17.25;11.73;;;;;;;9.53;87.52;93616.75;517739;28;778;-55
2023/05/04 00:27:34;;;;;;;17.77;12.00;;;;;;;9.50;87.43;93615.03;517796;28;884;-56
2023/05/04 00:27:49;;;;;;;15.25;11.80;;;;;;;9.47;87.41;93616.84;517769;28;848;-56
2023/05/04 00:28:04;;;;;;;17.40;12.00;;;;;;;9.48;87.28;93615.59;517734;28;883;-55
2023/05/04 00:28:20;;;;;;;20.17;12.43;;;;;;;9.49;87.20;93613.56;517773;28;832;-55
2023/05/04 00:28:35;;;;;;;17.30;12.05;;;;;;;9.46;87.19;93617.41;517686;28;893;-56
2023/05/04 00:28:51;;;;;;;15.77;11.80;;;;;;;9.46;87.07;93614.66;517784;28;930;-54
2023/05/04 00:29:06;;;;;;;17.00;12.07;;;;;;;9.41;87.02;93610.75;518092;28;960;-53
2023/05/04 00:29:21;;;;;;;16.25;12.02;;;;;;;9.37;87.24;93613.09;518185;28;896;-56
2023/05/04 00:29:37;;;;;;;16.13;12.13;;;;;;;9.35;87.31;93609.41;518041;28;1136;-53
2023/05/04 00:29:52;;;;;;;17.42;12.30;;;;;;;9.35;87.32;93614.91;518216;28;782;-55
2023/05/04 00:30:08;;;;;;;17.50;12.60;;;;;;;9.35;87.52;93609.41;518127;28;798;-54
2023/05/04 00:30:23;;;;;;;15.73;12.40;;;;;;;9.33;87.46;93609.94;518155;28;802;-56
2023/05/04 00:30:39;;;;;;;15.47;12.47;;;;;;;9.30;87.67;93611.00;518072;28;783;-55
2023/05/04 00:30:55;;;;;;;15.93;12.23;;;;;;;9.28;87.43;93608.03;516269;28;1153;-54
2023/05/04 00:31:10;;;;;;;16.83;12.13;;;;;;;9.32;87.61;93605.69;516077;28;817;-55
2023/05/04 00:31:26;;;;;;;16.02;12.57;;;;;;;9.34;87.65;93614.16;516105;28;837;-56
2023/05/04 00:31:41;;;;;;;15.97;12.67;;;;;;;9.27;87.42;93603.06;516071;28;875;-52
2023/05/04 00:31:56;;;;;;;15.88;12.10;;;;;;;9.26;87.54;93609.84;515868;28;1441;-55
2023/05/04 00:32:12;;;;;;;16.27;11.60;;;;;;;9.28;87.67;93608.03;516372;28;1079;-53
2023/05/04 00:32:27;;;;;;;17.50;11.63;;;;;;;9.33;87.58;93606.44;517962;28;856;-53
2023/05/04 00:32:43;;;;;;;16.47;11.93;;;;;;;9.35;87.39;93607.38;517944;28;868;-54
2023/05/04 00:32:58;;;;;;;15.40;12.07;;;;;;;9.39;87.15;93601.53;517912;28;853;-55
2023/05/04 00:33:13;;;;;;;16.92;12.50;;;;;;;9.45;87.22;93602.13;518041;28;844;-56
2023/05/04 00:33:29;;;;;;;16.27;12.70;;;;;;;9.44;87.10;93603.41;517503;28;1716;-55
2023/05/04 00:33:44;;;;;;;14.10;12.07;;;;;;;9.42;87.27;93605.97;515756;28;931;-55
2023/05/04 00:34:00;;;;;;;14.77;11.63;;;;;;;9.41;87.20;93602.47;514096;28;830;-56
2023/05/04 00:34:16;;;;;;;14.57;12.02;;;;;;;9.40;87.20;93606.50;514003;28;888;-56
2023/05/04 00:34:33;;;;;;;14.67;12.20;;;;;;;9.38;87.15;93603.53;514164;28;774;-56
2023/05/04 00:34:48;;;;;;;15.50;12.20;;;;;;;9.44;86.98;93604.13;514113;28;905;-55
2023/05/04 00:35:04;;;;;;;16.48;12.55;;;;;;;9.48;86.86;93604.56;514083;28;885;-54
2023/05/04 00:35:19;;;;;;;17.13;12.10;;;;;;;9.47;86.69;93594.81;514070;28;901;-53
2023/05/04 00:35:35;;;;;;;16.92;11.82;;;;;;;9.48;86.35;93596.31;514142;28;819;-56
2023/05/04 00:35:50;;;;;;;16.33;12.63;;;;;;;9.50;86.29;93601.25;514040;28;921;-55
2023/05/04 00:36:06;;;;;;;16.48;12.48;;;;;;;9.48;86.24;93598.31;514092;28;873;-55
2023/05/04 00:36:21;;;;;;;16.97;12.03;;;;;;;9.50;86.21;93604.75;514112;28;765;-55
2023/05/04 00:36:37;;;;;;;16.33;12.00;;;;;;;9.53;85.93;93594.69;514000;28;1525;-55
2023/05/04 00:36:52;;;;;;;18.57;12.20;;;;;;;9.55;85.95;93594.88;514174;28;794;-54
2023/05/04 00:37:07;;;;;;;19.07;12.30;;;;;;;9.57;85.59;93595.81;514065;28;968;-54
2023/05/04 00:37:23;;;;;;;15.13;12.15;;;;;;;9.57;85.65;93595.81;514100;28;986;-53
2023/05/04 00:37:38;;;;;;;14.27;12.73;;;;;;;9.58;85.53;93599.31;514116;28;831;-55
2023/05/04 00:37:53;;;;;;;14.15;12.65;;;;;;;9.57;85.57;93592.31;514069;28;801;-55
2023/05/04 00:38:09;;;;;;;15.30;12.53;;;;;;;9.58;85.67;93596.53;514042;28;997;-54
2023/05/04 00:38:24;;;;;;;16.93;13.00;;;;;;;9.59;85.74;93592.53;514114;28;798;-53
2023/05/04 00:38:47;;;;;;;17.00;13.10;;;;;;;9.57;86.18;93595.09;515679;28;2642;-53
2023/05/04 00:39:03;;;;;;;15.15;12.18;;;;;;;9.51;86.11;93594.47;516081;28;895;-53
2023/05/04 00:39:18;;;;;;;15.55;11.75;;;;;;;9.45;86.03;93588.34;516085;28;806;-54
2023/05/04 00:39:34;;;;;;;16.47;11.97;;;;;;;9.43;85.94;93590.91;516117;28;985;-53
2023/05/04 00:39:49;;;;;;;16.07;12.50;;;;;;;9.30;85.94;93572.44;516031;28;860;-56
2023/05/04 00:40:06;;;;;;;17.67;13.25;;;;;;;9.44;86.02;93590.34;516184;28;843;-53
2023/05/04 00:40:21;;;;;;;17.85;13.35;;;;;;;9.46;86.36;93593.34;515937;28;1739;-54
2023/05/04 00:40:36;;;;;;;18.23;13.25;;;;;;;9.49;86.38;93589.50;516097;28;786;-53
2023/05/04 00:40:52;;;;;;;18.93;12.77;;;;;;;9.51;86.41;93597.22;516109;28;901;-54
2023/05/04 00:41:07;;;;;;;14.87;12.00;;;;;;;9.52;86.26;93593.94;516060;28;776;-53
2023/05/04 00:41:22;;;;;;;15.07;12.30;;;;;;;9.54;86.33;93596.91;516145;28;836;-53
2023/05/04 00:41:38;;;;;;;15.63;12.50;;;;;;;9.50;86.23;93587.47;516022;28;876;-54
2023/05/04 00:41:53;;;;;;;18.83;13.57;;;;;;;9.51;86.10;93584.19;516056;28;962;-54
2023/05/04 00:42:08;;;;;;;19.77;13.93;;;;;;;9.54;86.36;93590.63;516084;28;786;-55
2023/05/04 00:42:24;;;;;;;16.47;13.53;;;;;;;9.57;86.33;93586.81;516114;28;765;-54
2023/05/04 00:42:39;;;;;;;16.20;13.30;;;;;;;9.60;86.14;93591.22;515868;28;869;-55
2023/05/04 00:42:55;;;;;;;15.55;12.75;;;;;;;9.62;86.20;93592.19;516119;28;825;-56
2023/05/04 00:43:10;;;;;;;15.17;12.80;;;;;;;9.62;85.97;93589.41;516100;28;853;-52
2023/05/04 00:43:25;;;;;;;16.35;13.00;;;;;;;9.62;86.18;93591.44;516056;28;884;-53
2023/05/04 00:43:41;;;;;;;19.70;13.57;;;;;;;9.62;86.13;93591.44;516115;28;790;-55
2023/05/04 00:43:58;;;;;;;19.00;13.30;;;;;;;9.60;86.07;93589.22;516081;28;843;-56
2023/05/04 00:44:13;;;;;;;16.25;12.52;;;;;;;9.58;85.95;93588.28;516039;28;948;-56
2023/05/04 00:44:29;;;;;;;15.88;12.75;;;;;;;9.61;85.81;93596.22;515939;28;889;-55
2023/05/04 00:44:44;;;;;;;16.40;13.27;;;;;;;9.64;85.76;93591.63;516105;28;802;-55
2023/05/04 00:44:59;;;;;;;17.87;13.37;;;;;;;9.66;85.98;93581.53;516022;28;1570;-55
2023/05/04 00:45:15;;;;;;;25.23;13.60;;;;;;;9.66;85.77;93591.81;516002;28;869;-55
2023/05/04 00:45:31;;;;;;;31.37;14.43;;;;;;;9.63;85.97;93587.41;516089;28;848;-56
2023/05/04 00:45:46;;;;;;;29.35;15.23;;;;;;;9.65;86.14;93598.63;516099;28;908;-56
2023/05/04 00:46:02;;;;;;;28.35;14.95;;;;;;;9.65;86.03;93588.34;516144;28;813;-55
2023/05/04 00:46:17;;;;;;;26.83;14.33;;;;;;;9.70;86.20;93595.00;515891;28;793;-53
2023/05/04 00:46:33;;;;;;;22.35;13.98;;;;;;;9.74;86.41;93595.41;513876;28;954;-56
2023/05/04 00:46:51;;;;;;;23.13;13.87;;;;;;;9.77;86.16;93602.56;511804;29;1906;-55
2023/05/04 00:47:07;;;;;;;20.02;14.27;;;;;;;9.58;86.10;93564.22;511927;29;834;-56
2023/05/04 00:47:23;;;;;;;17.75;14.70;;;;;;;9.79;86.24;93594.50;511900;29;861;-57
2023/05/04 00:47:39;;;;;;;20.03;14.63;;;;;;;9.81;86.42;93592.69;511859;29;986;-56
2023/05/04 00:47:54;;;;;;;19.67;14.00;;;;;;;9.82;86.25;93594.19;511803;29;838;-55
2023/05/04 00:48:10;;;;;;;15.90;13.43;;;;;;;9.86;86.09;93597.34;512736;28;1057;-56
2023/05/04 00:48:25;;;;;;;18.17;16.25;;;;;;;9.89;85.73;93598.28;513905;28;835;-54
2023/05/04 00:48:41;;;;;;;28.37;23.43;;;;;;;9.90;85.83;93597.72;514612;28;904;-55
2023/05/04 00:48:58;;;;;;;28.67;21.38;;;;;;;9.93;85.61;93604.94;515881;28;913;-55
2023/05/04 00:49:14;;;;;;;24.40;17.25;;;;;;;9.97;85.50;93592.78;513959;28;880;-56
2023/05/04 00:49:29;;;;;;;25.77;18.65;;;;;;;9.97;85.22;93598.31;513823;28;1001;-55
2023/05/04 00:49:45;;;;;;;26.45;18.50;;;;;;;9.95;85.40;93590.59;514603;28;778;-55
2023/05/04 00:50:00;;;;;;;24.70;17.80;;;;;;;9.95;85.36;93596.09;515921;28;865;-56
2023/05/04 00:50:16;;;;;;;22.40;17.40;;;;;;;9.97;85.38;93599.06;515932;28;831;-56
2023/05/04 00:50:31;;;;;;;21.63;17.58;;;;;;;9.98;85.34;93597.78;515787;28;2677;-56
2023/05/04 00:50:47;;;;;;;21.83;17.45;;;;;;;9.96;85.32;93594.84;513861;28;901;-56
2023/05/04 00:51:02;;;;;;;21.77;17.17;;;;;;;9.94;85.61;93598.13;513918;28;1712;-56
2023/05/04 00:51:19;;;;;;;22.27;17.00;;;;;;;9.96;85.63;93596.84;511842;28;873;-57
2023/05/04 00:51:35;;;;;;;20.83;16.63;;;;;;;9.98;85.71;93602.56;509968;29;932;-55
2023/05/04 00:51:51;;;;;;;20.08;17.00;;;;;;;9.97;85.77;93599.06;509966;29;800;-55
2023/05/04 00:52:06;;;;;;;20.95;16.65;;;;;;;9.99;85.71;93602.00;509910;29;1123;-56
2023/05/04 00:52:23;;;;;;;21.25;15.85;;;;;;;10.02;85.56;93597.44;510534;29;801;-56
2023/05/04 00:52:40;;;;;;;21.25;16.40;;;;;;;10.02;85.52;93591.91;509829;29;925;-55
2023/05/04 00:52:58;;;;;;;21.27;16.52;;;;;;;10.02;85.58;93600.94;509823;29;1005;-56
2023/05/04 00:53:13;;;;;;;18.20;14.63;;;;;;;10.00;85.54;93598.00;511112;28;959;-56
2023/05/04 00:53:29;;;;;;;17.83;13.77;;;;;;;10.01;85.25;93593.94;512966;28;1636;-56
2023/05/04 00:53:44;;;;;;;18.48;13.77;;;;;;;10.00;85.36;93592.47;511958;29;853;-56
2023/05/04 00:53:59;;;;;;;18.10;14.40;;;;;;;10.01;84.95;93593.19;512822;28;953;-56
2023/05/04 00:54:17;;;;;;;17.58;14.32;;;;;;;10.01;85.10;93593.94;511970;29;790;-56
2023/05/04 00:54:33;;;;;;;19.67;14.00;;;;;;;10.02;84.93;93589.91;512968;28;895;-56
2023/05/04 00:54:49;;;;;;;19.95;14.10;;;;;;;10.03;84.79;93594.13;511929;29;921;-57
2023/05/04 00:55:04;;;;;;;17.92;14.18;;;;;;;10.06;84.74;93601.34;511963;29;789;-57
2023/05/04 00:55:20;;;;;;;18.83;14.70;;;;;;;10.08;84.50;93598.78;511829;29;961;-55
2023/05/04 00:55:39;;;;;;;18.55;14.55;;;;;;;10.11;84.63;93603.25;512758;28;861;-55
2023/05/04 00:55:54;;;;;;;18.02;14.38;;;;;;;10.13;84.28;93597.91;513962;28;835;-56
2023/05/04 00:56:10;;;;;;;19.50;14.77;;;;;;;10.15;84.43;93595.34;513140;28;803;-57
2023/05/04 00:56:27;;;;;;;20.30;15.60;;;;;;;10.17;84.37;93587.28;513834;28;860;-55
2023/05/04 00:56:43;;;;;;;20.65;15.88;;;;;;;10.22;84.30;93596.69;514986;28;983;-56
2023/05/04 00:56:58;;;;;;;19.27;15.30;;;;;;;10.22;84.32;93597.41;515915;28;884;-56
2023/05/04 00:57:15;;;;;;;18.20;15.37;;;;;;;10.26;84.30;93600.56;515921;28;990;-56
2023/05/04 00:57:30;;;;;;;19.10;16.13;;;;;;;10.28;84.00;93592.50;513957;28;845;-56
2023/05/04 00:57:47;;;;;;;18.50;15.70;;;;;;;10.30;84.01;93595.44;513817;28;1143;-56
2023/05/04 00:58:02;;;;;;;19.50;14.90;;;;;;;10.31;83.81;93590.69;511825;29;810;-55
2023/05/04 00:58:17;;;;;;;19.43;14.60;;;;;;;10.17;83.59;93579.00;511935;29;841;-54
2023/05/04 00:58:33;;;;;;;18.43;14.67;;;;;;;10.28;83.50;93589.72;512642;28;1521;-56
2023/05/04 00:58:53;;;;;;;17.83;14.63;;;;;;;10.17;83.22;93578.25;513891;28;972;-56
2023/05/04 00:59:08;;;;;;;18.60;13.68;;;;;;;10.11;83.19;93578.41;513863;28;854;-57
2023/05/04 00:59:24;;;;;;;20.50;13.00;;;;;;;10.26;82.98;93589.53;513953;28;789;-55
2023/05/04 00:59:39;;;;;;;19.20;12.93;;;;;;;10.28;82.81;93594.50;513829;28;1509;-53
2023/05/04 00:59:55;;;;;;;19.13;13.30;;;;;;;10.28;82.80;93594.50;514856;28;888;-55
2023/05/04 01:00:12;;;;;;;17.67;13.43;;;;;;;10.30;82.66;93597.47;513915;28;949;-52
2023/05/04 01:00:27;;;;;;;16.95;13.13;;;;;;;10.33;82.45;93599.16;513844;28;880;-55
2023/05/04 01:00:43;;;;;;;17.40;13.57;;;;;;;10.33;82.15;93591.59;513941;28;794;-55
2023/05/04 01:00:58;;;;;;;15.93;13.50;;;;;;;10.33;82.10;93591.59;513890;28;781;-57
2023/05/04 01:01:13;;;;;;;16.33;13.10;;;;;;;10.36;82.05;93601.53;511958;28;770;-57
2023/05/04 01:01:29;;;;;;;15.90;13.23;;;;;;;10.38;81.82;93598.22;511811;29;1235;-56
2023/05/04 01:01:44;;;;;;;17.23;14.05;;;;;;;10.38;82.02;93595.47;511910;28;861;-55
2023/05/04 01:02:00;;;;;;;16.33;13.60;;;;;;;10.41;81.76;93602.69;512325;28;930;-54
2023/05/04 01:02:15;;;;;;;16.33;13.43;;;;;;;10.41;81.81;93595.13;511849;28;672;-55
2023/05/04 01:02:31;;;;;;;17.23;14.38;;;;;;;10.42;81.76;93588.31;511853;29;833;-55
2023/05/04 01:02:46;;;;;;;17.87;15.07;;;;;;;10.44;81.85;93596.06;511840;28;1036;-56
2023/05/04 01:03:01;;;;;;;20.30;15.38;;;;;;;10.45;81.91;93594.78;512073;28;912;-55
2023/05/04 01:03:17;;;;;;;19.40;14.80;;;;;;;10.46;81.88;93599.75;513811;28;912;-56
2023/05/04 01:03:33;;;;;;;17.83;14.63;;;;;;;10.48;82.15;93599.22;513924;28;897;-56
2023/05/04 01:03:50;;;;;;;18.63;14.98;;;;;;;10.49;82.08;93595.91;511919;29;869;-57
2023/05/04 01:04:05;;;;;;;20.88;15.45;;;;;;;10.50;81.98;93605.66;512446;28;917;-56
2023/05/04 01:04:21;;;;;;;20.60;15.02;;;;;;;10.50;82.31;93602.91;513867;28;796;-55
2023/05/04 01:04:36;;;;;;;17.90;14.37;;;;;;;10.52;82.17;93596.84;513775;28;1000;-54
2023/05/04 01:04:51;;;;;;;16.48;13.43;;;;;;;10.51;82.14;93596.09;513911;28;1577;-56
2023/05/04 01:05:08;;;;;;;15.13;13.13;;;;;;;10.51;81.88;93596.09;513848;28;1680;-54
2023/05/04 01:05:25;;;;;;;16.70;13.88;;;;;;;10.49;81.75;93597.94;513875;28;812;-56
2023/05/04 01:06:05;;;;;;;17.65;13.27;;;;;;;10.45;81.40;93592.78;513958;28;878;-56
2023/05/04 01:06:41;;;;;;;14.82;12.52;;;;;;;10.34;81.26;93590.31;513628;28;1138;-55
2023/05/04 01:07:10;;;;;;;17.90;12.50;;;;;;;10.33;81.29;93605.38;513949;28;834;-55
2023/05/04 01:07:38;;;;;;;16.88;13.30;;;;;;;10.34;81.26;93598.59;513978;28;967;-55
2023/05/04 01:07:57;;;;;;;17.17;12.85;;;;;;;10.37;81.27;93600.25;517863;28;852;-55
2023/05/04 01:08:17;;;;;;;17.20;13.13;;;;;;;10.24;81.06;93580.31;517923;28;879;-55
2023/05/04 01:08:38;;;;;;;18.23;14.10;;;;;;;10.40;81.11;93607.44;515863;28;886;-54
2023/05/04 01:09:09;;;;;;;18.50;14.85;;;;;;;10.40;81.13;93596.41;513937;28;875;-53
2023/05/04 01:09:36;;;;;;;18.27;14.93;;;;;;;10.42;81.32;93602.13;513897;28;957;-55
2023/05/04 01:10:10;;;;;;;16.25;13.52;;;;;;;10.38;81.20;93604.50;512086;28;977;-54
2023/05/04 01:10:40;;;;;;;16.13;14.07;;;;;;;10.35;81.60;93602.09;510714;29;1046;-55
2023/05/04 01:11:20;;;;;;;19.35;13.85;;;;;;;10.24;81.63;93583.09;511849;28;892;-54
2023/05/04 01:11:40;;;;;;;18.10;14.13;;;;;;;10.28;81.85;93589.72;511786;28;2021;-55
2023/05/04 01:12:06;;;;;;;18.67;14.52;;;;;;;10.39;81.90;93600.47;515917;28;879;-55
2023/05/04 01:12:29;;;;;;;18.10;13.10;;;;;;;10.43;82.12;93605.63;517198;28;859;-54
2023/05/04 01:12:51;;;;;;;17.40;13.35;;;;;;;10.38;82.05;93592.72;515882;28;1041;-55
2023/05/04 01:13:10;;;;;;;16.67;14.00;;;;;;;10.45;82.10;93603.06;515725;28;1079;-54
2023/05/04 01:13:27;;;;;;;17.77;13.80;;;;;;;10.45;82.00;93605.81;515883;28;862;-56
2023/05/04 01:13:43;;;;;;;17.58;14.15;;;;;;;10.45;82.09;93601.06;515890;28;896;-55
2023/05/04 01:13:59;;;;;;;16.80;13.95;;;;;;;10.30;82.00;93576.13;515876;28;864;-54
2023/05/04 01:14:15;;;;;;;15.43;12.93;;;;;;;10.48;81.94;93597.19;515896;28;1363;-53
2023/05/04 01:14:32;;;;;;;16.23;12.48;;;;;;;10.48;81.86;93602.00;515905;28;833;-53
2023/05/04 01:14:48;;;;;;;16.13;12.60;;;;;;;10.45;81.47;93594.78;515857;28;840;-54
2023/05/04 01:15:05;;;;;;;18.65;13.43;;;;;;;10.49;81.37;93601.44;515955;28;931;-55
2023/05/04 01:15:21;;;;;;;20.30;14.23;;;;;;;10.46;81.30;93604.56;515777;28;885;-55
2023/05/04 01:15:36;;;;;;;19.85;15.25;;;;;;;10.45;81.13;93598.28;515775;28;1195;-55
2023/05/04 01:15:51;;;;;;;20.00;15.67;;;;;;;10.46;81.23;93602.50;514915;28;892;-54
2023/05/04 01:16:07;;;;;;;20.40;15.98;;;;;;;10.44;81.14;93599.56;511868;29;872;-53
2023/05/04 01:16:22;;;;;;;22.03;16.63;;;;;;;10.48;81.31;93607.50;513155;28;782;-54
2023/05/04 01:16:38;;;;;;;22.45;16.60;;;;;;;10.48;81.39;93602.69;513102;28;1196;-55
2023/05/04 01:16:56;;;;;;;21.27;16.40;;;;;;;10.51;81.47;93600.88;514343;28;876;-56
2023/05/04 01:17:11;;;;;;;21.65;16.25;;;;;;;10.51;81.32;93596.09;515940;28;852;-56
2023/05/04 01:17:27;;;;;;;19.92;14.80;;;;;;;10.52;81.41;93600.34;513751;28;1270;-54
2023/05/04 01:17:42;;;;;;;16.03;13.30;;;;;;;10.54;81.56;93608.09;514581;28;901;-55
2023/05/04 01:17:58;;;;;;;15.40;13.15;;;;;;;10.55;81.41;93601.25;516529;28;911;-54
2023/05/04 01:18:13;;;;;;;17.23;14.67;;;;;;;10.56;81.39;93606.25;517811;28;1673;-56
2023/05/04 01:18:29;;;;;;;19.87;16.00;;;;;;;10.57;81.36;93604.97;517824;28;851;-55